createdAt,value
2022-12-26T00:02:01.627Z,2.30
2022-12-26T00:04:51.900Z,1.97
2022-12-26T00:07:21.816Z,2.23
2022-12-26T00:09:56.339Z,1.87
2022-12-26T00:12:25.912Z,1.60
2022-12-26T00:14:53.402Z,1.48
2022-12-26T00:17:30.902Z,1.40
2022-12-26T00:19:58.316Z,1.70
2022-12-26T00:22:45.022Z,1.77
2022-12-26T00:25:12.482Z,1.60
2022-12-26T00:27:39.789Z,1.40
2022-12-26T00:30:16.271Z,1.67
2022-12-26T00:32:43.610Z,1.65
2022-12-26T00:35:11.073Z,1.88
2022-12-26T00:37:45.224Z,2.15
2022-12-26T00:40:12.857Z,1.60
2022-12-26T00:42:40.276Z,2.23
2022-12-26T00:45:15.176Z,1.75
2022-12-26T00:47:42.686Z,2.07
2022-12-26T00:50:13.988Z,1.50
2022-12-26T00:52:50.291Z,1.70
2022-12-26T00:55:19.839Z,1.60
2022-12-26T00:57:47.204Z,1.67
2022-12-26T01:00:21.857Z,2.42
2022-12-26T01:02:49.440Z,1.50
2022-12-26T01:05:19.068Z,1.67
2022-12-26T01:08:20.186Z,1.92
2022-12-26T01:10:45.889Z,1.60
2022-12-26T01:13:21.264Z,1.88
2022-12-26T01:15:50.414Z,1.60
2022-12-26T01:18:18.286Z,1.60
2022-12-26T01:20:52.089Z,1.90
2022-12-26T01:23:26.311Z,1.63
2022-12-26T01:26:15.301Z,1.70
2022-12-26T01:28:43.544Z,1.67
2022-12-26T01:31:18.119Z,2.00
2022-12-26T01:33:46.092Z,1.85
2022-12-26T01:36:14.171Z,1.60
2022-12-26T01:38:47.993Z,1.80
2022-12-26T01:41:20.496Z,2.00
2022-12-26T01:43:59.015Z,1.65
2022-12-26T01:46:36.093Z,1.63
2022-12-26T01:49:37.601Z,1.65
2022-12-26T01:52:09.644Z,1.52
2022-12-26T01:54:46.502Z,1.60
2022-12-26T01:57:24.999Z,1.65
2022-12-26T02:00:00.497Z,1.30
2022-12-26T02:02:30.054Z,1.52
2022-12-26T02:05:23.478Z,2.05
2022-12-26T02:07:50.915Z,1.70
2022-12-26T02:10:22.722Z,1.40
2022-12-26T02:12:57.563Z,1.63
2022-12-26T02:15:25.778Z,1.73
2022-12-26T02:17:53.126Z,1.50
2022-12-26T02:20:33.556Z,1.50
2022-12-26T02:23:43.618Z,1.50
2022-12-26T02:26:30.555Z,1.85
2022-12-26T02:29:18.195Z,1.45
2022-12-26T02:32:42.544Z,1.67
2022-12-26T02:35:21.396Z,1.55
2022-12-26T02:38:13.439Z,1.80
2022-12-26T02:41:05.455Z,1.60
2022-12-26T02:43:57.460Z,1.60
2022-12-26T02:47:02.136Z,1.50
2022-12-26T02:50:15.495Z,1.55
2022-12-26T02:53:29.903Z,1.70
2022-12-26T02:56:31.536Z,1.40
2022-12-26T02:59:56.399Z,1.60
2022-12-26T03:03:26.636Z,1.95
2022-12-26T03:06:21.094Z,1.50
2022-12-26T03:09:28.568Z,2.03
2022-12-26T03:12:29.367Z,1.77
2022-12-26T03:15:07.472Z,1.60
2022-12-26T03:17:43.018Z,1.45
2022-12-26T03:20:21.546Z,1.70
2022-12-26T03:23:12.488Z,1.60
2022-12-26T03:26:19.580Z,1.70
2022-12-26T03:28:48.526Z,1.60
2022-12-26T03:31:17.613Z,1.80
2022-12-26T03:34:12.575Z,1.50
2022-12-26T03:37:17.378Z,1.52
2022-12-26T03:40:58.451Z,1.40
2022-12-26T03:44:06.848Z,1.85
2022-12-26T03:47:12.262Z,1.52
2022-12-26T03:50:07.368Z,1.77
2022-12-26T03:53:35.251Z,1.55
2022-12-26T03:56:43.668Z,1.67
2022-12-26T03:59:44.223Z,1.65
2022-12-26T04:02:32.423Z,1.50
2022-12-26T04:05:29.243Z,1.92
2022-12-26T04:08:23.592Z,1.77
2022-12-26T04:11:20.510Z,1.70
2022-12-26T04:14:30.412Z,1.60
2022-12-26T04:17:48.017Z,1.80
2022-12-26T04:20:35.223Z,1.85
2022-12-26T04:23:44.958Z,1.70
2022-12-26T04:26:44.090Z,1.70
2022-12-26T04:29:37.065Z,1.70
2022-12-26T04:32:39.758Z,1.52
2022-12-26T04:35:45.266Z,1.80
2022-12-26T04:38:35.244Z,1.67
2022-12-26T04:41:33.724Z,1.60
2022-12-26T04:44:08.306Z,1.55
2022-12-26T04:46:48.148Z,1.67
2022-12-26T04:49:38.469Z,1.70
2022-12-26T04:52:19.082Z,1.80
2022-12-26T04:54:46.448Z,1.57
2022-12-26T04:57:15.503Z,2.00
2022-12-26T04:59:49.129Z,2.00
2022-12-26T05:02:35.177Z,1.70
2022-12-26T05:05:28.213Z,2.10
2022-12-26T05:08:14.053Z,1.92
2022-12-26T05:10:53.564Z,1.92
2022-12-26T05:13:20.959Z,1.98
2022-12-26T05:16:13.622Z,2.22
2022-12-26T05:18:59.529Z,1.73
2022-12-26T05:21:58.591Z,1.70
2022-12-26T05:24:57.956Z,1.85
2022-12-26T05:28:12.717Z,2.22
2022-12-26T05:30:40.694Z,2.13
2022-12-26T05:33:34.691Z,2.30
2022-12-26T05:36:02.060Z,2.00
2022-12-26T05:38:29.511Z,2.17
2022-12-26T05:41:03.706Z,2.00
2022-12-26T05:43:31.284Z,2.38
2022-12-26T05:45:59.012Z,2.60
2022-12-26T05:48:32.737Z,2.20
2022-12-26T05:51:03.869Z,2.25
2022-12-26T05:53:32.813Z,2.47
2022-12-26T05:56:14.972Z,2.50
2022-12-26T05:58:43.284Z,2.57
2022-12-26T06:01:26.026Z,2.40
2022-12-26T06:03:58.118Z,2.10
2022-12-26T06:06:34.002Z,2.40
2022-12-26T06:09:01.616Z,2.70
2022-12-26T06:11:29.347Z,2.25
2022-12-26T06:14:03.974Z,2.20
2022-12-26T06:16:31.418Z,2.13
2022-12-26T06:18:58.985Z,2.42
2022-12-26T06:21:33.024Z,2.57
2022-12-26T06:24:07.099Z,2.13
2022-12-26T06:26:40.971Z,2.33
2022-12-26T06:29:09.734Z,2.30
2022-12-26T06:31:37.627Z,2.60
2022-12-26T06:34:11.942Z,2.17
2022-12-26T06:36:39.780Z,2.35
2022-12-26T06:39:07.379Z,2.33
2022-12-26T06:41:41.047Z,2.30
2022-12-26T06:44:16.125Z,2.40
2022-12-26T06:46:52.056Z,2.20
2022-12-26T06:49:19.781Z,2.13
2022-12-26T06:51:47.354Z,2.10
2022-12-26T06:54:21.002Z,2.27
2022-12-26T06:56:49.146Z,2.20
2022-12-26T06:59:16.718Z,2.23
2022-12-26T07:01:51.193Z,1.80
2022-12-26T07:04:18.776Z,2.00
2022-12-26T07:06:47.985Z,2.30
2022-12-26T07:09:31.451Z,2.03
2022-12-26T07:12:01.029Z,2.70
2022-12-26T07:14:38.821Z,2.45
2022-12-26T07:17:06.707Z,2.60
2022-12-26T07:19:37.399Z,2.93
2022-12-26T07:22:13.199Z,2.77
2022-12-26T07:24:47.411Z,2.80
2022-12-26T07:27:22.107Z,2.93
2022-12-26T07:29:49.493Z,2.57
2022-12-26T07:32:17.397Z,2.70
2022-12-26T07:34:51.092Z,2.53
2022-12-26T07:37:18.492Z,2.37
2022-12-26T07:39:45.845Z,2.73
2022-12-26T07:42:21.224Z,2.90
2022-12-26T07:44:50.339Z,2.90
2022-12-26T07:50:03.043Z,2.97
2022-12-26T07:52:57.613Z,3.63
2022-12-26T07:55:42.113Z,3.07
2022-12-26T07:58:10.289Z,3.07
2022-12-26T08:04:00.326Z,2.67
2022-12-26T08:06:30.400Z,3.00
2022-12-26T08:08:57.954Z,3.10
2022-12-26T08:11:32.596Z,2.80
2022-12-26T08:14:03.984Z,3.10
2022-12-26T08:16:31.557Z,3.07
2022-12-26T08:19:09.529Z,2.80
2022-12-26T08:21:37.174Z,2.90
2022-12-26T08:24:04.976Z,3.03
2022-12-26T08:26:39.389Z,3.20
2022-12-26T08:29:06.843Z,2.80
2022-12-26T08:31:54.484Z,3.40
2022-12-26T08:34:22.033Z,3.30
2022-12-26T08:36:52.057Z,3.13
2022-12-26T08:39:26.371Z,3.45
2022-12-26T08:41:53.835Z,3.20
2022-12-26T08:44:29.184Z,3.38
2022-12-26T08:47:04.481Z,3.47
2022-12-26T08:49:31.880Z,3.17
2022-12-26T08:51:59.346Z,3.23
2022-12-26T08:54:33.718Z,3.60
2022-12-26T08:57:02.352Z,3.30
2022-12-26T08:59:30.325Z,2.93
2022-12-26T09:02:04.845Z,2.87
2022-12-26T09:04:32.540Z,2.72
2022-12-26T09:07:02.170Z,2.80
2022-12-26T09:09:36.152Z,2.73
2022-12-26T09:12:03.721Z,2.23
2022-12-26T09:14:31.189Z,2.37
2022-12-26T09:17:05.176Z,2.73
2022-12-26T09:19:33.032Z,2.90
2022-12-26T09:22:29.311Z,2.60
2022-12-26T09:25:00.935Z,2.23
2022-12-26T09:27:38.734Z,3.03
2022-12-26T09:30:06.941Z,2.50
2022-12-26T09:32:54.531Z,2.40
2022-12-26T09:35:22.752Z,2.70
2022-12-26T09:37:50.281Z,2.10
2022-12-26T09:40:34.782Z,1.97
2022-12-26T09:43:31.930Z,2.03
2022-12-26T09:46:17.573Z,1.67
2022-12-26T09:48:57.591Z,1.50
2022-12-26T09:51:33.534Z,1.40
2022-12-26T09:54:04.750Z,1.40
2022-12-26T09:59:40.885Z,1.70
2022-12-26T10:02:28.625Z,2.03
2022-12-26T10:04:56.334Z,0.97
2022-12-26T10:08:18.638Z,1.67
2022-12-26T10:11:01.230Z,0.87
2022-12-26T10:13:53.664Z,0.97
2022-12-26T10:16:28.761Z,0.70
2022-12-26T10:19:05.604Z,0.60
2022-12-26T10:22:13.567Z,0.90
2022-12-26T10:24:49.663Z,0.70
2022-12-26T10:27:19.295Z,0.90
2022-12-26T10:30:08.665Z,0.60
2022-12-26T10:33:00.633Z,0.50
2022-12-26T10:35:39.638Z,0.70
2022-12-26T10:38:42.063Z,0.60
2022-12-26T10:41:29.686Z,0.60
2022-12-26T10:43:57.189Z,0.70
2022-12-26T10:46:43.951Z,0.80
2022-12-26T10:49:18.777Z,0.70
2022-12-26T10:51:52.739Z,0.70
2022-12-26T10:54:20.433Z,0.60
2022-12-26T10:56:52.005Z,0.50
2022-12-26T10:59:31.175Z,0.50
2022-12-26T11:02:14.210Z,0.67
2022-12-26T11:05:57.359Z,0.50
2022-12-26T11:08:40.682Z,0.77
2022-12-26T11:11:25.179Z,0.50
2022-12-26T11:14:02.132Z,0.70
2022-12-26T11:16:41.097Z,0.47
2022-12-26T11:19:43.005Z,0.50
2022-12-26T11:22:33.195Z,0.50
2022-12-26T11:25:13.073Z,0.50
2022-12-26T11:27:55.163Z,0.40
2022-12-26T11:30:31.098Z,0.40
2022-12-26T11:33:36.127Z,0.40
2022-12-26T11:36:15.469Z,0.30
2022-12-26T11:39:11.142Z,0.60
2022-12-26T11:41:41.714Z,0.60
2022-12-26T11:44:19.150Z,1.43
2022-12-26T11:46:49.634Z,0.50
2022-12-26T11:49:35.174Z,0.50
2022-12-26T11:52:23.096Z,0.60
2022-12-26T11:54:58.143Z,0.60
2022-12-26T11:57:31.945Z,0.50
2022-12-26T12:00:32.370Z,0.43
2022-12-26T12:02:59.857Z,0.70
2022-12-26T12:05:55.162Z,0.60
2022-12-26T12:08:28.283Z,0.53
2022-12-26T12:11:12.163Z,0.50
2022-12-26T12:13:49.129Z,0.57
2022-12-26T12:16:49.155Z,0.67
2022-12-26T12:19:37.742Z,0.67
2022-12-26T12:22:11.141Z,0.67
2022-12-26T12:24:51.015Z,0.50
2022-12-26T12:27:31.183Z,0.70
2022-12-26T12:30:15.934Z,0.67
2022-12-26T12:33:22.136Z,0.80
2022-12-26T12:36:19.716Z,0.60
2022-12-26T12:39:05.154Z,0.70
2022-12-26T12:42:03.889Z,0.70
2022-12-26T12:45:01.138Z,0.70
2022-12-26T12:47:55.739Z,0.80
2022-12-26T12:50:53.063Z,0.70
2022-12-26T12:53:35.976Z,0.70
2022-12-26T12:56:25.117Z,0.80
2022-12-26T12:59:06.000Z,0.63
2022-12-26T13:01:49.213Z,0.77
2022-12-26T13:04:42.766Z,0.60
2022-12-26T13:07:33.160Z,0.50
2022-12-26T13:10:04.309Z,0.80
2022-12-26T13:12:43.164Z,0.77
2022-12-26T13:15:33.806Z,0.80
2022-12-26T13:18:22.146Z,1.90
2022-12-26T13:20:58.176Z,1.47
2022-12-26T13:24:06.185Z,0.60
2022-12-26T13:26:42.279Z,1.00
2022-12-26T13:29:40.108Z,0.80
2022-12-26T13:32:32.262Z,0.80
2022-12-26T13:35:13.167Z,0.70
2022-12-26T13:37:40.565Z,0.60
2022-12-26T13:40:24.162Z,0.83
2022-12-26T13:43:20.391Z,0.80
2022-12-26T13:45:57.224Z,1.00
2022-12-26T13:48:29.649Z,0.90
2022-12-26T13:51:09.167Z,0.77
2022-12-26T13:53:41.129Z,0.90
2022-12-26T13:56:25.227Z,0.80
2022-12-26T13:59:28.625Z,0.90
2022-12-26T14:02:32.110Z,1.00
2022-12-26T14:05:36.638Z,1.07
2022-12-26T14:08:40.155Z,0.90
2022-12-26T14:11:36.977Z,0.90
2022-12-26T14:14:50.767Z,0.90
2022-12-26T14:17:27.491Z,0.93
2022-12-26T14:20:22.283Z,0.80
2022-12-26T14:23:26.798Z,0.90
2022-12-26T14:26:12.188Z,0.80
2022-12-26T14:29:17.432Z,0.70
2022-12-26T14:32:07.207Z,0.83
2022-12-26T14:35:06.323Z,0.90
2022-12-26T14:38:17.274Z,0.67
2022-12-26T14:41:09.132Z,1.00
2022-12-26T14:43:45.459Z,1.00
2022-12-26T14:46:31.223Z,1.10
2022-12-26T14:49:42.564Z,0.73
2022-12-26T14:52:43.423Z,1.10
2022-12-26T14:55:49.582Z,0.90
2022-12-26T14:58:32.069Z,1.00
2022-12-26T15:01:21.907Z,1.00
2022-12-26T15:04:23.485Z,0.83
2022-12-26T15:07:32.847Z,0.97
2022-12-26T15:10:00.302Z,0.90
2022-12-26T15:12:59.415Z,1.10
2022-12-26T15:16:18.518Z,1.10
2022-12-26T15:19:03.954Z,1.03
2022-12-26T15:22:08.682Z,1.30
2022-12-26T15:27:58.671Z,0.83
2022-12-26T15:31:09.097Z,0.90
2022-12-26T15:34:07.049Z,0.80
2022-12-26T15:36:56.138Z,0.90
2022-12-26T15:39:43.485Z,0.60
2022-12-26T15:42:36.127Z,0.70
2022-12-26T15:45:37.584Z,0.70
2022-12-26T15:48:44.127Z,0.80
2022-12-26T15:51:13.675Z,0.87
2022-12-26T15:54:07.133Z,0.80
2022-12-26T15:56:46.779Z,0.57
2022-12-26T15:59:49.068Z,0.80
2022-12-26T16:02:28.802Z,0.80
2022-12-26T16:05:18.833Z,0.70
2022-12-26T16:08:04.175Z,0.90
2022-12-26T16:10:43.101Z,0.87
2022-12-26T16:13:13.491Z,1.07
2022-12-26T16:16:02.218Z,1.10
2022-12-26T16:18:32.192Z,1.10
2022-12-26T16:21:31.136Z,0.80
2022-12-26T16:23:58.628Z,0.90
2022-12-26T16:26:29.208Z,1.20
2022-12-26T16:29:07.218Z,1.10
2022-12-26T16:31:34.917Z,1.40
2022-12-26T16:34:22.160Z,1.40
2022-12-26T16:36:51.816Z,1.60
2022-12-26T16:39:30.135Z,1.40
2022-12-26T16:42:04.085Z,1.60
2022-12-26T16:44:43.173Z,2.40
2022-12-26T16:47:17.163Z,1.10
2022-12-26T16:49:52.181Z,0.90
2022-12-26T16:52:34.401Z,0.80
2022-12-26T16:55:48.146Z,1.20
2022-12-26T16:58:36.930Z,0.73
2022-12-26T17:01:17.184Z,1.53
2022-12-26T17:03:51.807Z,1.10
2022-12-26T17:06:34.120Z,1.07
2022-12-26T17:09:16.827Z,1.20
2022-12-26T17:12:15.058Z,1.40
2022-12-26T17:14:47.630Z,1.20
2022-12-26T17:17:36.097Z,1.10
2022-12-26T17:20:22.079Z,1.50
2022-12-26T17:23:01.122Z,1.63
2022-12-26T17:25:31.187Z,1.50
2022-12-26T17:28:12.827Z,1.83
2022-12-26T17:30:48.709Z,1.00
2022-12-26T17:33:41.427Z,0.70
2022-12-26T17:37:16.355Z,1.60
2022-12-26T17:39:29.830Z,0.60
2022-12-26T17:42:02.183Z,0.40
2022-12-26T17:44:50.041Z,0.30
2022-12-26T17:47:24.814Z,0.33
2022-12-26T17:50:00.725Z,0.20
2022-12-26T17:52:37.130Z,0.77
2022-12-26T17:55:17.342Z,0.80
2022-12-26T17:57:44.764Z,0.40
2022-12-26T18:00:27.354Z,0.50
2022-12-26T18:02:55.721Z,0.20
2022-12-26T18:05:23.522Z,0.40
2022-12-26T18:07:59.372Z,0.23
2022-12-26T18:10:29.210Z,0.50
2022-12-26T18:12:57.677Z,0.40
2022-12-26T18:15:34.375Z,0.40
2022-12-26T18:18:03.476Z,0.43
2022-12-26T18:20:31.002Z,0.60
2022-12-26T18:23:05.475Z,0.80
2022-12-26T18:25:33.065Z,0.37
2022-12-26T18:28:00.613Z,1.07
2022-12-26T18:30:34.468Z,0.30
2022-12-26T18:33:11.811Z,0.30
2022-12-26T18:35:54.703Z,1.80
2022-12-26T18:38:22.431Z,0.30
2022-12-26T18:41:03.711Z,0.60
2022-12-26T18:43:31.289Z,1.10
2022-12-26T18:45:58.924Z,0.50
2022-12-26T18:48:32.785Z,0.87
2022-12-26T18:51:00.329Z,0.70
2022-12-26T18:53:27.782Z,2.70
2022-12-26T18:56:03.196Z,1.00
2022-12-26T18:58:30.588Z,0.90
2022-12-26T19:00:59.658Z,0.87
2022-12-26T19:03:36.272Z,0.90
2022-12-26T19:06:03.763Z,1.20
2022-12-26T19:08:31.616Z,1.23
2022-12-26T19:11:05.700Z,1.97
2022-12-26T19:13:33.163Z,1.70
2022-12-26T19:16:02.848Z,1.30
2022-12-26T19:18:40.843Z,1.30
2022-12-26T19:21:13.324Z,1.53
2022-12-26T19:23:47.874Z,1.00
2022-12-26T19:26:22.009Z,1.70
2022-12-26T19:29:03.922Z,2.50
2022-12-26T19:31:37.307Z,0.50
2022-12-26T19:34:17.993Z,0.37
2022-12-26T19:36:45.667Z,0.83
2022-12-26T19:39:13.080Z,0.80
2022-12-26T19:41:50.331Z,0.57
2022-12-26T19:44:18.294Z,0.50
2022-12-26T19:46:49.182Z,0.60
2022-12-26T19:49:45.853Z,0.70
2022-12-26T19:52:15.261Z,0.87
2022-12-26T19:54:43.053Z,0.97
2022-12-26T19:57:21.734Z,1.00
2022-12-26T19:59:49.604Z,1.20
2022-12-26T20:02:19.893Z,1.10
2022-12-26T20:04:53.805Z,1.40
2022-12-26T20:07:23.675Z,1.40
2022-12-26T20:09:51.141Z,1.50
2022-12-26T20:12:25.530Z,1.70
2022-12-26T20:14:59.672Z,1.50
2022-12-26T20:17:33.580Z,1.80
2022-12-26T20:20:01.085Z,1.90
2022-12-26T20:22:29.203Z,1.83
2022-12-26T20:25:03.582Z,1.77
2022-12-26T20:27:30.991Z,1.50
2022-12-26T20:30:00.404Z,1.47
2022-12-26T20:32:34.527Z,1.93
2022-12-26T20:35:32.512Z,1.70
2022-12-26T20:38:06.507Z,1.80
2022-12-26T20:40:33.934Z,1.90
2022-12-26T20:43:01.395Z,2.27
2022-12-26T20:45:35.657Z,2.20
2022-12-26T20:48:03.179Z,2.17
2022-12-26T20:50:33.889Z,2.17
2022-12-26T20:53:09.570Z,1.93
2022-12-26T20:55:37.953Z,1.90
2022-12-26T20:58:07.011Z,1.80
2022-12-26T21:00:40.671Z,2.20
2022-12-26T21:03:14.586Z,2.30
2022-12-26T21:05:50.732Z,2.20
2022-12-26T21:08:18.294Z,1.90
2022-12-26T21:10:45.948Z,2.27
2022-12-26T21:13:20.683Z,1.90
2022-12-26T21:15:48.096Z,1.90
2022-12-26T21:18:15.490Z,2.23
2022-12-26T21:20:49.731Z,1.93
2022-12-26T21:23:17.176Z,2.07
2022-12-26T21:25:46.590Z,2.00
2022-12-26T21:28:21.011Z,2.00
2022-12-26T21:30:48.406Z,1.73
2022-12-26T21:33:44.089Z,1.93
2022-12-26T21:36:13.339Z,2.07
2022-12-26T21:38:47.702Z,2.30
2022-12-26T21:41:15.890Z,2.10
2022-12-26T21:43:43.279Z,1.70
2022-12-26T21:46:21.858Z,2.00
2022-12-26T21:48:50.270Z,1.80
2022-12-26T21:51:19.768Z,2.00
2022-12-26T21:53:53.734Z,1.70
2022-12-26T21:56:21.125Z,2.27
2022-12-26T21:59:13.731Z,2.00
2022-12-26T22:01:41.197Z,2.10
2022-12-26T22:04:27.662Z,1.90
2022-12-26T22:06:55.356Z,1.77
2022-12-26T22:09:23.024Z,1.80
2022-12-26T22:12:15.743Z,1.80
2022-12-26T22:14:43.236Z,2.20
2022-12-26T22:17:10.593Z,1.87
2022-12-26T22:19:44.714Z,2.17
2022-12-26T22:22:14.326Z,2.23
2022-12-26T22:24:42.702Z,1.77
2022-12-26T22:27:16.320Z,2.20
2022-12-26T22:29:45.195Z,2.40
2022-12-26T22:32:14.683Z,3.30
2022-12-26T22:34:49.759Z,2.40
2022-12-26T22:37:17.214Z,2.47
2022-12-26T22:39:44.514Z,1.97
2022-12-26T22:42:18.742Z,2.30
2022-12-26T22:44:46.178Z,2.10
2022-12-26T22:47:13.777Z,2.23
2022-12-26T22:49:47.709Z,2.03
2022-12-26T22:52:16.109Z,2.03
2022-12-26T22:54:45.495Z,2.07
2022-12-26T22:57:20.731Z,2.20
2022-12-26T23:00:09.797Z,1.90
2022-12-26T23:02:46.693Z,1.83
2022-12-26T23:05:14.667Z,1.60
2022-12-26T23:07:46.424Z,1.80
2022-12-26T23:10:32.987Z,2.03
2022-12-26T23:13:00.884Z,2.23
2022-12-26T23:15:29.187Z,2.27
2022-12-26T23:18:45.909Z,2.50
2022-12-26T23:21:42.375Z,2.20
2022-12-26T23:24:25.988Z,2.47
2022-12-26T23:27:19.212Z,2.10
2022-12-26T23:30:11.924Z,2.03
2022-12-26T23:32:41.429Z,2.17
2022-12-26T23:35:21.908Z,2.10
2022-12-26T23:37:52.319Z,2.33
2022-12-26T23:40:20.967Z,2.17
2022-12-26T23:42:54.947Z,1.87
2022-12-26T23:45:22.310Z,1.80
2022-12-26T23:47:49.693Z,1.80
2022-12-26T23:50:23.924Z,1.90
2022-12-26T23:52:51.377Z,2.00
2022-12-26T23:55:29.612Z,2.13
2022-12-26T23:58:05.459Z,1.93
